createdAt,value
2023-05-16T17:26:34.945Z,70.09
2023-05-16T17:27:34.721Z,70.91
2023-05-16T17:28:34.679Z,71.11
2023-05-16T17:29:34.632Z,71.11
2023-05-16T17:30:34.590Z,71.11
2023-05-16T17:31:34.538Z,71.01
2023-05-16T17:32:34.515Z,71.87
2023-05-16T17:33:34.470Z,71.87
2023-05-16T17:34:34.410Z,72.54
2023-05-16T17:35:34.368Z,72.25
2023-05-16T17:36:34.319Z,72.25
2023-05-16T17:37:34.289Z,72.44
2023-05-16T17:38:34.236Z,72.83
2023-05-16T17:39:34.229Z,73.17
2023-05-16T17:40:34.142Z,73.94
2023-05-16T17:41:34.101Z,73.75
2023-05-16T17:42:34.258Z,73.27
2023-05-16T17:43:34.012Z,73.55
2023-05-16T17:44:33.984Z,73.84
2023-05-16T17:45:33.932Z,73.36
2023-05-16T17:46:33.901Z,73.55
2023-05-16T17:47:33.841Z,73.27
2023-05-16T17:48:33.787Z,73.65
2023-05-16T17:49:33.785Z,73.84
2023-05-16T17:50:33.705Z,73.94
2023-05-16T17:51:33.662Z,74.32
2023-05-16T17:52:33.614Z,74.99
2023-05-16T17:53:33.563Z,74.99
2023-05-16T17:54:33.529Z,74.80
2023-05-16T17:55:33.493Z,74.90
2023-05-16T17:56:33.649Z,74.90
2023-05-16T17:57:33.397Z,75.18
2023-05-16T17:58:33.458Z,74.99
2023-05-16T17:59:33.330Z,75.66
2023-05-16T18:00:33.265Z,75.66
2023-05-16T18:01:33.223Z,75.76
2023-05-16T18:02:33.214Z,75.56
2023-05-16T18:03:33.177Z,75.56
2023-05-16T18:04:33.085Z,76.00
2023-05-16T18:05:33.217Z,76.10
2023-05-16T18:06:32.998Z,76.00
2023-05-16T18:07:32.951Z,76.20
2023-05-16T18:08:32.911Z,76.00
2023-05-16T18:09:32.868Z,76.29
2023-05-16T18:10:47.498Z,76.39
2023-05-16T18:11:32.779Z,76.39
2023-05-16T18:12:32.868Z,76.10
2023-05-16T18:13:32.690Z,76.39
2023-05-16T18:14:32.778Z,76.67
2023-05-16T18:15:32.595Z,76.48
2023-05-16T18:16:32.579Z,76.67
2023-05-16T18:17:32.554Z,76.77
2023-05-16T18:18:32.490Z,76.67
2023-05-16T18:19:32.522Z,76.29
2023-05-16T18:20:32.393Z,76.67
2023-05-16T18:21:32.341Z,76.67
2023-05-16T18:22:32.298Z,76.77
2023-05-16T18:23:32.245Z,76.67
2023-05-16T18:24:32.200Z,76.48
2023-05-16T18:25:32.164Z,76.77
2023-05-16T18:26:32.165Z,76.77
2023-05-16T18:27:32.065Z,76.67
2023-05-16T18:28:32.022Z,76.77
2023-05-16T18:29:32.000Z,77.30
2023-05-16T18:30:32.029Z,77.63
2023-05-16T18:31:31.884Z,78.39
2023-05-16T18:32:31.870Z,78.97
2023-05-16T18:33:31.836Z,78.74
2023-05-16T18:34:31.778Z,78.64
2023-05-16T18:35:31.774Z,79.50
2023-05-16T18:36:31.666Z,80.27
2023-05-16T18:37:31.642Z,80.93
2023-05-16T18:38:33.491Z,80.65
2023-05-16T18:39:31.526Z,81.51
2023-05-16T18:40:31.486Z,82.46
2023-05-16T18:41:31.452Z,83.51
2023-05-16T18:42:31.399Z,83.51
2023-05-16T18:43:31.348Z,83.51
2023-05-16T18:44:31.508Z,83.51
2023-05-16T18:45:31.264Z,83.09
2023-05-16T18:46:31.453Z,82.81
2023-05-16T18:47:31.269Z,83.33
2023-05-16T18:48:31.194Z,84.47
2023-05-16T18:49:31.079Z,83.38
2023-05-16T18:50:31.036Z,83.38
2023-05-16T18:51:30.989Z,83.38
2023-05-16T18:52:30.982Z,83.28
2023-05-16T18:53:30.905Z,82.81
2023-05-16T18:54:30.856Z,82.61
2023-05-16T18:55:30.919Z,82.71
2023-05-16T18:56:30.769Z,83.28
2023-05-16T18:58:30.675Z,83.28
2023-05-16T18:59:30.634Z,83.67
2023-05-16T19:00:30.592Z,83.28
2023-05-16T19:01:30.546Z,83.86
2023-05-16T19:02:40.933Z,84.05
2023-05-16T19:03:30.616Z,83.47
2023-05-16T19:04:30.480Z,83.28
2023-05-16T19:05:30.581Z,83.28
2023-05-16T19:06:30.318Z,83.47
2023-05-16T19:07:30.277Z,84.05
2023-05-16T19:08:40.339Z,83.86
2023-05-16T19:09:30.196Z,84.52
2023-05-16T19:10:30.342Z,84.62
2023-05-16T19:11:30.095Z,85.10
2023-05-16T19:12:30.048Z,85.67
2023-05-16T19:13:30.006Z,86.05
2023-05-16T19:14:30.019Z,85.67
2023-05-16T19:15:29.980Z,85.91
2023-05-16T19:16:29.871Z,85.34
2023-05-16T19:17:29.891Z,85.25
2023-05-16T19:18:29.969Z,86.10
2023-05-16T19:19:29.904Z,87.10
2023-05-16T19:20:29.911Z,87.25
2023-05-16T19:21:29.646Z,87.15
2023-05-16T19:22:29.665Z,87.20
2023-05-16T19:23:29.670Z,87.01
2023-05-16T19:24:29.528Z,87.44
2023-05-16T19:25:29.479Z,87.06
2023-05-16T19:26:29.419Z,86.96
2023-05-16T19:27:29.378Z,87.63
2023-05-16T19:28:29.332Z,87.54
2023-05-16T19:29:29.286Z,88.30
2023-05-16T19:30:29.491Z,88.87
2023-05-16T19:31:29.198Z,89.16
2023-05-16T19:32:29.164Z,89.83
2023-05-16T19:33:29.108Z,91.16
2023-05-16T19:34:29.626Z,90.88
2023-05-16T19:35:29.310Z,90.50
2023-05-16T19:36:28.970Z,91.07
2023-05-16T19:37:28.931Z,90.97
2023-05-16T19:38:28.887Z,90.69
2023-05-16T19:39:28.838Z,90.88
2023-05-16T19:40:28.816Z,90.40
2023-05-16T19:43:28.657Z,90.97
2023-05-16T19:44:28.625Z,90.69
2023-05-16T19:45:28.825Z,91.36
2023-05-16T19:46:28.533Z,90.97
2023-05-16T19:47:28.690Z,91.93
2023-05-16T19:48:28.488Z,91.64
2023-05-16T19:49:28.739Z,92.12
2023-05-16T19:50:28.485Z,92.79
2023-05-16T19:51:40.712Z,92.79
2023-05-16T19:52:28.251Z,93.46
2023-05-16T19:53:28.203Z,93.46
2023-05-16T19:54:28.160Z,93.17
2023-05-16T19:55:28.364Z,93.93
2023-05-16T19:56:28.068Z,94.51
2023-05-16T19:57:28.029Z,93.93
2023-05-16T19:58:28.002Z,92.21
2023-05-16T19:59:27.962Z,91.69
2023-05-16T20:00:27.916Z,91.78
2023-05-16T20:01:27.855Z,92.41
2023-05-16T20:02:27.823Z,92.46
2023-05-16T20:03:27.838Z,93.26
2023-05-16T20:04:27.941Z,93.65
2023-05-16T20:05:27.823Z,92.46
2023-05-16T20:06:27.706Z,91.60
2023-05-16T20:07:27.603Z,91.12
2023-05-16T20:08:27.520Z,91.12
2023-05-16T20:09:27.520Z,91.02
2023-05-16T20:10:27.431Z,91.12
2023-05-16T20:11:27.384Z,91.78
2023-05-16T20:12:27.348Z,91.78
2023-05-16T20:13:27.299Z,91.78
2023-05-16T20:14:27.250Z,91.21
2023-05-16T20:15:27.340Z,90.83
2023-05-16T20:16:27.197Z,90.83
2023-05-16T20:17:27.152Z,90.73
2023-05-16T20:18:27.093Z,91.31
2023-05-16T20:19:27.165Z,90.83
2023-05-16T20:20:26.985Z,91.12
2023-05-16T20:21:26.937Z,91.02
2023-05-16T20:22:27.031Z,90.93
2023-05-16T20:23:26.837Z,90.83
2023-05-16T20:24:26.821Z,91.02
2023-05-16T20:25:27.265Z,90.64
2023-05-16T20:26:26.709Z,90.36
2023-05-16T20:27:26.671Z,90.73
2023-05-16T20:28:26.630Z,90.73
2023-05-16T20:29:26.582Z,90.36
2023-05-16T20:30:26.520Z,90.36
2023-05-16T20:31:26.484Z,90.55
2023-05-16T20:32:26.425Z,91.12
2023-05-16T20:33:26.499Z,90.73
2023-05-16T20:34:26.341Z,90.93
2023-05-16T20:35:26.437Z,90.55
2023-05-16T20:36:26.252Z,90.64
